createdAt,value
2017-12-03T00:00:11.189Z,102203.37
2017-12-03T00:02:47.785Z,102208.64
2017-12-03T00:05:20.192Z,102201.44
2017-12-03T00:07:53.503Z,102197.03
2017-12-03T00:10:31.898Z,102199.31
2017-12-03T00:13:07.032Z,102194.81
2017-12-03T00:15:40.108Z,102195.98
2017-12-03T00:18:12.044Z,102193.63
2017-12-03T00:20:54.324Z,102197.75
2017-12-03T00:23:26.216Z,102196.17
2017-12-03T00:25:59.249Z,102192.33
2017-12-03T00:28:32.017Z,102186.45
2017-12-03T00:31:05.314Z,102188.92
2017-12-03T00:33:37.014Z,102193.42
2017-12-03T00:36:09.319Z,102180.23
2017-12-03T00:38:43.114Z,102183.60
2017-12-03T00:41:15.739Z,102179.47
2017-12-03T00:43:47.137Z,102171.73
2017-12-03T00:46:24.244Z,102174.52
2017-12-03T00:49:01.061Z,102174.91
2017-12-03T00:51:33.530Z,102165.68
2017-12-03T00:54:05.437Z,102171.25
2017-12-03T00:56:41.708Z,102168.69
2017-12-03T00:59:14.615Z,102161.49
2017-12-03T01:01:49.314Z,102166.54
2017-12-03T01:04:20.798Z,102165.53
2017-12-03T01:06:52.406Z,102162.44
2017-12-03T01:09:24.412Z,102158.66
2017-12-03T01:11:57.522Z,102163.53
2017-12-03T01:14:41.514Z,102161.22
2017-12-03T01:17:13.399Z,102153.23
2017-12-03T01:19:46.608Z,102154.90
2017-12-03T01:22:27.732Z,102160.72
2017-12-03T01:24:59.613Z,102156.39
2017-12-03T01:27:33.346Z,102154.56
2017-12-03T01:30:07.413Z,102157.94
2017-12-03T01:32:41.256Z,102156.89
2017-12-03T01:35:13.755Z,102160.36
2017-12-03T01:37:47.147Z,102169.91
2017-12-03T01:40:19.161Z,102170.80
2017-12-03T01:42:50.670Z,102165.06
2017-12-03T01:45:23.871Z,102156.50
2017-12-03T01:48:00.896Z,102153.52
2017-12-03T01:50:33.379Z,102153.63
2017-12-03T01:53:05.480Z,102160.34
2017-12-03T01:55:37.781Z,102153.59
2017-12-03T01:58:09.336Z,102148.18
2017-12-03T02:00:45.303Z,102148.56
2017-12-03T02:03:18.274Z,102144.78
2017-12-03T02:05:56.587Z,102137.63
2017-12-03T02:08:28.476Z,102140.34
2017-12-03T02:11:00.158Z,102142.31
2017-12-03T02:16:21.150Z,102137.08
2017-12-03T02:18:53.751Z,102131.99
2017-12-03T02:21:25.060Z,102125.06
2017-12-03T02:23:57.514Z,102133.09
2017-12-03T02:26:29.553Z,102132.65
2017-12-03T02:29:01.461Z,102131.00
2017-12-03T02:31:34.564Z,102125.17
2017-12-03T02:34:11.590Z,102129.80
2017-12-03T02:36:44.154Z,102129.02
2017-12-03T02:39:18.167Z,102127.53
2017-12-03T02:41:51.056Z,102125.95
2017-12-03T02:44:27.975Z,102135.27
2017-12-03T02:47:00.872Z,102129.52
2017-12-03T02:49:35.192Z,102123.38
2017-12-03T02:52:08.443Z,102119.13
2017-12-03T02:54:45.578Z,102132.13
2017-12-03T02:57:18.600Z,102130.88
2017-12-03T02:59:52.384Z,102119.51
2017-12-03T03:02:24.993Z,102121.39
2017-12-03T03:04:56.590Z,102113.19
2017-12-03T03:07:28.508Z,102112.66
2017-12-03T03:10:01.150Z,102113.70
2017-12-03T03:12:33.285Z,102107.82
2017-12-03T03:15:10.185Z,102108.02
2017-12-03T03:17:44.584Z,102103.13
2017-12-03T03:20:20.093Z,102085.50
2017-12-03T03:22:51.583Z,102089.48
2017-12-03T03:25:22.977Z,102086.67
2017-12-03T03:27:55.792Z,102086.17
2017-12-03T03:30:31.000Z,102089.39
2017-12-03T03:33:02.387Z,102092.33
2017-12-03T03:35:35.390Z,102084.31
2017-12-03T03:38:07.600Z,102085.10
2017-12-03T03:40:41.887Z,102084.50
2017-12-03T03:43:13.816Z,102093.41
2017-12-03T03:45:47.708Z,102086.80
2017-12-03T03:48:19.578Z,102091.63
2017-12-03T03:50:51.878Z,102092.02
2017-12-03T03:53:23.369Z,102089.25
2017-12-03T03:55:54.971Z,102090.23
2017-12-03T03:58:26.669Z,102093.70
2017-12-03T04:00:58.787Z,102080.75
2017-12-03T04:03:30.266Z,102081.36
2017-12-03T04:06:01.879Z,102083.36
2017-12-03T04:08:34.173Z,102083.60
2017-12-03T04:11:05.578Z,102086.40
2017-12-03T04:13:37.732Z,102082.72
2017-12-03T04:16:09.977Z,102091.26
2017-12-03T04:18:41.477Z,102081.49
2017-12-03T04:21:13.188Z,102076.67
2017-12-03T04:23:47.188Z,102079.03
2017-12-03T04:26:20.731Z,102075.38
2017-12-03T04:28:54.209Z,102077.05
2017-12-03T04:31:31.042Z,102080.52
2017-12-03T04:34:03.252Z,102071.59
2017-12-03T04:36:36.019Z,102071.02
2017-12-03T04:39:08.128Z,102066.26
2017-12-03T04:41:40.024Z,102059.45
2017-12-03T04:44:21.831Z,102069.86
2017-12-03T04:46:53.830Z,102074.70
2017-12-03T04:49:25.438Z,102076.72
2017-12-03T04:51:58.148Z,102076.81
2017-12-03T04:54:30.857Z,102081.80
2017-12-03T04:57:02.755Z,102076.72
2017-12-03T04:59:35.729Z,102077.78
2017-12-03T05:02:07.942Z,102079.86
2017-12-03T05:04:39.516Z,102078.61
2017-12-03T05:07:11.029Z,102080.83
2017-12-03T05:09:43.743Z,102075.52
2017-12-03T05:12:15.514Z,102067.89
2017-12-03T05:14:47.733Z,102072.42
2017-12-03T05:17:19.629Z,102069.54
2017-12-03T05:19:51.425Z,102060.55
2017-12-03T05:22:22.726Z,102058.25
2017-12-03T05:24:54.026Z,102050.98
2017-12-03T05:27:25.526Z,102056.05
2017-12-03T05:29:58.022Z,102047.11
2017-12-03T05:32:33.622Z,102041.47
2017-12-03T05:35:05.328Z,102043.30
2017-12-03T05:37:36.827Z,102040.67
2017-12-03T05:40:08.315Z,102032.30
2017-12-03T05:42:39.616Z,102031.48
2017-12-03T05:45:13.914Z,102036.09
2017-12-03T05:47:46.210Z,102035.16
2017-12-03T05:50:18.011Z,102041.61
2017-12-03T05:52:50.127Z,102038.25
2017-12-03T05:55:21.424Z,102042.34
2017-12-03T05:57:54.314Z,102031.70
2017-12-03T06:00:26.120Z,102031.72
2017-12-03T06:02:58.638Z,102035.16
2017-12-03T06:05:30.344Z,102028.12
2017-12-03T06:08:06.941Z,102023.67
2017-12-03T06:10:45.648Z,102028.31
2017-12-03T06:13:17.644Z,102029.94
2017-12-03T06:15:54.355Z,102032.12
2017-12-03T06:18:26.645Z,102031.62
2017-12-03T06:20:59.753Z,102027.61
2017-12-03T06:23:31.767Z,102035.48
2017-12-03T06:26:04.659Z,102035.80
2017-12-03T06:28:36.566Z,102043.82
2017-12-03T06:31:08.258Z,102042.13
2017-12-03T06:33:40.710Z,102043.53
2017-12-03T06:36:11.967Z,101999.61
2017-12-03T06:38:44.864Z,102039.51
2017-12-03T06:41:16.151Z,102039.30
2017-12-03T06:43:54.048Z,102041.05
2017-12-03T06:46:27.649Z,102042.24
2017-12-03T06:48:59.846Z,102042.41
2017-12-03T06:51:33.652Z,102038.00
2017-12-03T06:54:05.549Z,102039.81
2017-12-03T06:56:38.146Z,102034.56
2017-12-03T06:59:09.817Z,102030.26
2017-12-03T07:01:42.839Z,102041.61
2017-12-03T07:04:14.142Z,102047.70
2017-12-03T07:06:46.746Z,102028.70
2017-12-03T07:09:19.052Z,102042.73
2017-12-03T07:11:50.871Z,102047.69
2017-12-03T07:14:23.854Z,102049.40
2017-12-03T07:16:56.172Z,102045.88
2017-12-03T07:19:27.665Z,102048.38
2017-12-03T07:21:58.963Z,102041.59
2017-12-03T07:24:31.463Z,102040.89
2017-12-03T07:27:02.665Z,102047.23
2017-12-03T07:29:34.670Z,102042.19
2017-12-03T07:32:07.591Z,102043.58
2017-12-03T07:34:39.871Z,102038.45
2017-12-03T07:37:11.580Z,102042.03
2017-12-03T07:39:43.475Z,102041.28
2017-12-03T07:42:16.081Z,102043.15
2017-12-03T07:44:47.488Z,102044.55
2017-12-03T07:47:19.380Z,102040.39
2017-12-03T07:49:51.075Z,102039.95
2017-12-03T07:52:23.410Z,102042.66
2017-12-03T07:54:55.579Z,102040.66
2017-12-03T07:57:27.088Z,102038.75
2017-12-03T07:59:58.772Z,102037.98
2017-12-03T08:02:31.375Z,102042.09
2017-12-03T08:05:02.972Z,102039.72
2017-12-03T08:07:36.577Z,102043.27
2017-12-03T08:10:07.789Z,102039.52
2017-12-03T08:12:39.879Z,102053.89
2017-12-03T08:15:12.711Z,102036.44
2017-12-03T08:17:44.182Z,102046.55
2017-12-03T08:20:17.395Z,102050.99
2017-12-03T08:22:48.871Z,102050.63
2017-12-03T08:25:20.168Z,102045.17
2017-12-03T08:27:51.874Z,102048.64
2017-12-03T08:30:23.364Z,102055.20
2017-12-03T08:32:55.873Z,102041.17
2017-12-03T08:35:27.354Z,102048.89
2017-12-03T08:38:00.059Z,102049.85
2017-12-03T08:40:32.068Z,102053.28
2017-12-03T08:43:03.558Z,102049.40
2017-12-03T08:45:36.471Z,102054.04
2017-12-03T08:48:08.380Z,102051.94
2017-12-03T08:50:40.076Z,102058.07
2017-12-03T08:53:19.576Z,102053.50
2017-12-03T08:55:51.302Z,102055.64
2017-12-03T08:58:23.308Z,102046.03
2017-12-03T09:00:57.243Z,102058.05
2017-12-03T09:03:30.613Z,102041.75
2017-12-03T09:06:03.836Z,102039.74
2017-12-03T09:08:37.033Z,102050.30
2017-12-03T09:11:09.033Z,102056.58
2017-12-03T09:13:41.931Z,102052.80
2017-12-03T09:16:16.925Z,102056.38
2017-12-03T09:18:48.432Z,102053.68
2017-12-03T09:21:20.029Z,102055.27
2017-12-03T09:23:51.935Z,102063.74
2017-12-03T09:26:23.347Z,102053.98
2017-12-03T09:28:56.124Z,102051.13
2017-12-03T09:31:28.717Z,102040.86
2017-12-03T09:34:00.218Z,102042.88
2017-12-03T09:36:31.525Z,102048.23
2017-12-03T09:39:03.305Z,102048.20
2017-12-03T09:41:35.729Z,102050.97
2017-12-03T09:44:07.420Z,102048.92
2017-12-03T09:46:45.305Z,102050.47
2017-12-03T09:49:19.128Z,102046.07
2017-12-03T09:51:52.415Z,102049.42
2017-12-03T09:54:24.104Z,102045.30
2017-12-03T09:56:59.702Z,102037.92
2017-12-03T09:59:31.596Z,102046.02
2017-12-03T10:02:03.146Z,102048.41
2017-12-03T10:04:34.602Z,102040.86
2017-12-03T10:07:12.707Z,102030.64
2017-12-03T10:09:48.646Z,102053.59
2017-12-03T10:12:26.731Z,102048.69
2017-12-03T10:14:58.842Z,102050.30
2017-12-03T10:17:30.830Z,102050.08
2017-12-03T10:20:03.733Z,102056.81
2017-12-03T10:22:42.323Z,102049.50
2017-12-03T10:25:15.035Z,102046.84
2017-12-03T10:27:51.657Z,102039.36
2017-12-03T10:30:24.637Z,102042.50
2017-12-03T10:32:56.341Z,102033.87
2017-12-03T10:35:29.969Z,102013.70
2017-12-03T10:38:09.844Z,102023.44
2017-12-03T10:40:41.226Z,102019.14
2017-12-03T10:43:14.891Z,102013.22
2017-12-03T10:45:46.645Z,102024.12
2017-12-03T10:48:18.330Z,102017.89
2017-12-03T10:50:50.421Z,102017.34
2017-12-03T10:53:21.923Z,102016.67
2017-12-03T10:55:53.346Z,102018.12
2017-12-03T10:58:28.541Z,102013.67
2017-12-03T11:01:17.317Z,102001.86
2017-12-03T11:03:49.028Z,102016.59
2017-12-03T11:06:20.611Z,101994.92
2017-12-03T11:08:52.211Z,102003.71
2017-12-03T11:11:24.529Z,101998.45
2017-12-03T11:13:56.326Z,101992.96
2017-12-03T11:16:28.521Z,101998.49
2017-12-03T11:19:01.225Z,101990.95
2017-12-03T11:21:34.933Z,101989.66
2017-12-03T11:24:07.628Z,101993.67
2017-12-03T11:26:48.319Z,101992.54
2017-12-03T11:29:26.129Z,101990.16
2017-12-03T11:31:58.036Z,101993.76
2017-12-03T11:34:30.513Z,101995.02
2017-12-03T11:37:03.514Z,101994.37
2017-12-03T11:39:42.414Z,101986.68
2017-12-03T11:42:14.423Z,101986.32
2017-12-03T11:44:48.345Z,101989.97
2017-12-03T11:47:20.945Z,101981.69
2017-12-03T11:49:52.447Z,101979.39
2017-12-03T11:52:24.544Z,101970.59
2017-12-03T11:54:57.059Z,101978.48
2017-12-03T11:57:29.154Z,101974.20
2017-12-03T12:00:01.443Z,101973.36
2017-12-03T12:02:37.684Z,101981.66
2017-12-03T12:05:09.582Z,101981.12
2017-12-03T12:07:42.979Z,101972.90
2017-12-03T12:10:18.155Z,101978.30
2017-12-03T12:12:52.781Z,101979.81
2017-12-03T12:15:28.456Z,101975.16
2017-12-03T12:18:03.469Z,101971.27
2017-12-03T12:20:36.853Z,101969.83
2017-12-03T12:23:09.142Z,101965.02
2017-12-03T12:25:43.251Z,101962.32
2017-12-03T12:28:22.132Z,101963.70
2017-12-03T12:30:55.046Z,101961.55
2017-12-03T12:33:29.766Z,101958.52
2017-12-03T12:36:01.420Z,101950.83
2017-12-03T12:38:34.012Z,101944.09
2017-12-03T12:41:05.523Z,101946.80
2017-12-03T12:43:40.013Z,101940.41
2017-12-03T12:48:41.780Z,101934.10
2017-12-03T12:51:17.529Z,101921.61
2017-12-03T12:53:51.840Z,101934.19
2017-12-03T12:56:27.403Z,101936.51
2017-12-03T12:59:05.035Z,101939.57
2017-12-03T13:01:36.572Z,101927.83
2017-12-03T13:04:08.402Z,101925.89
2017-12-03T13:06:45.763Z,101923.29
2017-12-03T13:09:19.900Z,101923.98
2017-12-03T13:11:52.493Z,101920.70
2017-12-03T13:14:26.204Z,101915.55
2017-12-03T13:16:59.206Z,101910.94
2017-12-03T13:19:34.935Z,101914.59
2017-12-03T13:22:10.176Z,101892.08
2017-12-03T13:24:51.915Z,101915.88
2017-12-03T13:27:26.648Z,101920.64
2017-12-03T13:30:01.046Z,101912.08
2017-12-03T13:32:59.681Z,101919.47
2017-12-03T13:35:41.625Z,101916.83
2017-12-03T13:38:15.123Z,101920.84
2017-12-03T13:43:26.298Z,101914.83
2017-12-03T13:46:00.513Z,101912.92
2017-12-03T13:48:45.603Z,101910.93
2017-12-03T13:51:24.192Z,101903.36
2017-12-03T13:53:58.921Z,101911.02
2017-12-03T13:56:31.491Z,101911.39
2017-12-03T13:59:10.396Z,101915.19
2017-12-03T14:01:46.088Z,101923.66
2017-12-03T14:04:18.996Z,101920.34
2017-12-03T14:06:53.065Z,101917.22
2017-12-03T14:09:27.106Z,101919.64
2017-12-03T14:12:02.394Z,101909.36
2017-12-03T14:17:19.809Z,101923.88
2017-12-03T14:19:51.784Z,101924.40
2017-12-03T14:22:27.357Z,101918.19
2017-12-03T14:25:02.882Z,101919.95
2017-12-03T14:27:37.536Z,101920.69
2017-12-03T14:30:14.162Z,101915.28
2017-12-03T14:32:45.299Z,101913.67
2017-12-03T14:35:16.097Z,101924.44
2017-12-03T14:37:48.764Z,101923.84
2017-12-03T14:40:21.763Z,101921.85
2017-12-03T14:42:54.977Z,101912.69
2017-12-03T14:45:29.955Z,101914.17
2017-12-03T14:48:09.858Z,101922.55
2017-12-03T14:50:47.460Z,101917.40
2017-12-03T14:53:18.810Z,101916.38
2017-12-03T14:55:52.463Z,101921.45
2017-12-03T14:58:25.661Z,101927.86
2017-12-03T15:01:07.362Z,101919.09
2017-12-03T15:03:41.959Z,101924.28
2017-12-03T15:06:13.029Z,101928.08
2017-12-03T15:08:45.089Z,101926.52
2017-12-03T15:11:17.843Z,101930.84
2017-12-03T15:13:49.855Z,101936.34
2017-12-03T15:16:22.561Z,101945.50
2017-12-03T15:18:55.865Z,101952.10
2017-12-03T15:21:29.456Z,101957.30
2017-12-03T15:24:00.301Z,101933.30
2017-12-03T15:26:34.108Z,101955.61
2017-12-03T15:29:10.067Z,101959.17
2017-12-03T15:31:51.527Z,101945.27
2017-12-03T15:34:24.804Z,101962.48
2017-12-03T15:36:55.833Z,101962.97
2017-12-03T15:39:29.410Z,101954.41
2017-12-03T15:42:01.439Z,101960.98
2017-12-03T15:44:33.528Z,101958.00
2017-12-03T15:47:06.934Z,101954.89
2017-12-03T15:49:49.288Z,101960.53
2017-12-03T15:52:21.530Z,101960.66
2017-12-03T15:54:54.143Z,101961.86
2017-12-03T15:57:37.061Z,101960.09
2017-12-03T16:00:17.936Z,101940.21
2017-12-03T16:02:52.634Z,101966.61
2017-12-03T16:05:25.528Z,101974.81
2017-12-03T16:07:59.029Z,101963.03
2017-12-03T16:10:32.212Z,101970.64
2017-12-03T16:13:04.910Z,101960.35
2017-12-03T16:15:40.484Z,101966.41
2017-12-03T16:18:14.016Z,101962.67
2017-12-03T16:20:53.404Z,101974.17
2017-12-03T16:23:27.228Z,101971.05
2017-12-03T16:26:01.339Z,101982.34
2017-12-03T16:28:38.768Z,101971.97
2017-12-03T16:31:11.812Z,101972.02
2017-12-03T16:33:45.538Z,101984.09
2017-12-03T16:36:17.906Z,101987.22
2017-12-03T16:38:48.643Z,101987.92
2017-12-03T16:41:22.955Z,101979.52
2017-12-03T16:43:57.121Z,101977.77
2017-12-03T16:46:30.322Z,101980.69
2017-12-03T16:49:03.902Z,101969.70
2017-12-03T16:51:36.447Z,101984.55
2017-12-03T16:54:10.733Z,101976.97
2017-12-03T16:56:46.607Z,101985.54
2017-12-03T16:59:18.734Z,101978.91
2017-12-03T17:01:53.636Z,101981.88
2017-12-03T17:04:28.195Z,101985.50
2017-12-03T17:06:59.563Z,101983.27
2017-12-03T17:09:38.219Z,101985.87
2017-12-03T17:12:14.119Z,101988.39
2017-12-03T17:14:48.129Z,101988.36
2017-12-03T17:17:21.824Z,101987.23
2017-12-03T17:19:56.737Z,101996.80
2017-12-03T17:22:30.654Z,101998.55
2017-12-03T17:25:09.139Z,101994.13
2017-12-03T17:27:43.697Z,101998.31
2017-12-03T17:30:18.734Z,101993.15
2017-12-03T17:32:59.258Z,102004.78
2017-12-03T17:35:33.641Z,102012.61
2017-12-03T17:38:06.312Z,102001.84
2017-12-03T17:40:50.953Z,101999.90
2017-12-03T17:43:31.446Z,102004.45
2017-12-03T17:46:04.134Z,102015.19
2017-12-03T17:48:37.127Z,102013.26
2017-12-03T17:51:10.246Z,102006.91
2017-12-03T17:53:45.930Z,102002.94
2017-12-03T17:56:17.615Z,102004.14
2017-12-03T17:58:49.577Z,102007.21
2017-12-03T18:01:23.673Z,102007.33
2017-12-03T18:04:02.596Z,102006.44
2017-12-03T18:06:36.355Z,101971.75
2017-12-03T18:09:08.516Z,102011.84
2017-12-03T18:11:54.028Z,102026.70
2017-12-03T18:14:39.489Z,102026.36
2017-12-03T18:17:21.507Z,102019.55
2017-12-03T18:19:53.755Z,102016.76
2017-12-03T18:22:25.980Z,102017.89
2017-12-03T18:24:58.164Z,102034.50
2017-12-03T18:27:32.569Z,102035.20
2017-12-03T18:30:09.162Z,102028.88
2017-12-03T18:32:48.990Z,102042.95
2017-12-03T18:35:24.707Z,102037.48
2017-12-03T18:38:01.812Z,102036.78
2017-12-03T18:40:36.927Z,102036.50
2017-12-03T18:43:10.830Z,102056.49
2017-12-03T18:45:45.117Z,102063.16
2017-12-03T18:48:18.186Z,102066.34
2017-12-03T18:50:53.309Z,102064.38
2017-12-03T18:53:26.494Z,102058.64
2017-12-03T18:56:00.301Z,102070.28
2017-12-03T18:58:32.475Z,102063.80
2017-12-03T19:01:04.770Z,102051.61
2017-12-03T19:03:38.782Z,102022.02
2017-12-03T19:06:11.491Z,102050.87
2017-12-03T19:08:45.697Z,102051.30
2017-12-03T19:11:18.410Z,102057.53
2017-12-03T19:13:50.517Z,102061.03
2017-12-03T19:16:22.050Z,102064.78
2017-12-03T19:18:54.464Z,102067.94
2017-12-03T19:21:26.621Z,102075.66
2017-12-03T19:23:59.968Z,102083.94
2017-12-03T19:29:22.489Z,102062.86
2017-12-03T19:31:57.757Z,102068.17
2017-12-03T19:34:29.697Z,102057.73
2017-12-03T19:37:01.298Z,102047.41
2017-12-03T19:39:33.983Z,102060.30
2017-12-03T19:42:06.459Z,102061.55
2017-12-03T19:44:39.068Z,102071.66
2017-12-03T19:47:12.650Z,102057.56
2017-12-03T19:49:46.210Z,102064.55
2017-12-03T19:52:19.471Z,102073.53
2017-12-03T19:54:54.993Z,102070.92
2017-12-03T19:57:26.843Z,102071.27
2017-12-03T19:59:58.976Z,102066.50
2017-12-03T20:02:33.783Z,102066.59
2017-12-03T20:05:04.432Z,102077.50
2017-12-03T20:07:40.102Z,102069.63
2017-12-03T20:10:12.093Z,102070.42
2017-12-03T20:12:45.497Z,102074.93
2017-12-03T20:15:26.294Z,102078.34
2017-12-03T20:18:00.338Z,102070.47
2017-12-03T20:20:33.616Z,102064.45
2017-12-03T20:23:07.911Z,102072.78
2017-12-03T20:25:40.401Z,102076.70
2017-12-03T20:28:12.997Z,102082.08
2017-12-03T20:30:49.182Z,102086.80
2017-12-03T20:33:22.098Z,102085.92
2017-12-03T20:35:55.940Z,102072.56
2017-12-03T20:38:32.695Z,102090.98
2017-12-03T20:41:05.087Z,102092.09
2017-12-03T20:43:41.234Z,102085.22
2017-12-03T20:46:14.977Z,102095.17
2017-12-03T20:48:49.309Z,102085.09
2017-12-03T20:51:21.586Z,102097.70
2017-12-03T20:53:52.650Z,102094.36
2017-12-03T20:56:24.732Z,102104.85
2017-12-03T20:58:56.493Z,102110.91
2017-12-03T21:01:29.008Z,102119.58
2017-12-03T21:04:03.000Z,102119.80
2017-12-03T21:06:35.424Z,102119.38
2017-12-03T21:09:09.547Z,102121.80
2017-12-03T21:11:47.931Z,102113.24
2017-12-03T21:14:18.423Z,102115.61
2017-12-03T21:16:52.050Z,102111.59
2017-12-03T21:19:31.720Z,102121.91
2017-12-03T21:22:05.746Z,102128.42
2017-12-03T21:24:38.969Z,102127.30
2017-12-03T21:27:15.641Z,102126.13
2017-12-03T21:29:50.143Z,102134.61
2017-12-03T21:32:23.377Z,102128.49
2017-12-03T21:34:56.638Z,102140.12
2017-12-03T21:37:28.685Z,102142.95
2017-12-03T21:40:05.248Z,102146.70
2017-12-03T21:42:42.957Z,102148.41
2017-12-03T21:45:19.142Z,102137.36
2017-12-03T21:47:54.032Z,102149.30
2017-12-03T21:50:28.301Z,102136.69
2017-12-03T21:53:02.646Z,102149.73
2017-12-03T21:55:39.004Z,102145.00
2017-12-03T21:58:12.846Z,102148.45
2017-12-03T22:00:45.761Z,102146.59
2017-12-03T22:03:19.824Z,102149.61
2017-12-03T22:05:56.047Z,102159.69
2017-12-03T22:08:28.159Z,102155.52
2017-12-03T22:10:59.054Z,102155.34
2017-12-03T22:13:31.113Z,102147.38
2017-12-03T22:16:05.032Z,102151.55
2017-12-03T22:18:40.022Z,102159.67
2017-12-03T22:21:11.806Z,102161.31
2017-12-03T22:23:45.001Z,102165.05
2017-12-03T22:26:18.403Z,102170.44
2017-12-03T22:28:52.826Z,102171.02
2017-12-03T22:34:11.109Z,102176.22
2017-12-03T22:37:01.880Z,102174.09
2017-12-03T22:39:37.820Z,102172.80
2017-12-03T22:42:09.702Z,102176.98
2017-12-03T22:44:43.266Z,102165.36
2017-12-03T22:47:15.311Z,102166.71
2017-12-03T22:49:47.921Z,102168.78
2017-12-03T22:52:20.035Z,102151.66
2017-12-03T22:54:58.561Z,102150.67
2017-12-03T22:57:31.981Z,102152.41
2017-12-03T23:00:10.135Z,102153.64
2017-12-03T23:02:44.655Z,102157.79
2017-12-03T23:05:17.948Z,102165.14
2017-12-03T23:07:53.130Z,102162.41
2017-12-03T23:10:25.444Z,102168.39
2017-12-03T23:12:57.361Z,102173.54
2017-12-03T23:15:32.652Z,102164.20
2017-12-03T23:18:05.310Z,102167.44
2017-12-03T23:20:38.250Z,102166.76
2017-12-03T23:23:10.243Z,102170.77
2017-12-03T23:25:50.892Z,102180.72
2017-12-03T23:28:27.135Z,102178.03
2017-12-03T23:31:00.962Z,102178.17
2017-12-03T23:33:34.945Z,102183.70
2017-12-03T23:36:07.994Z,102184.47
2017-12-03T23:38:41.028Z,102184.98
2017-12-03T23:41:13.727Z,102189.28
2017-12-03T23:43:47.980Z,102185.94
2017-12-03T23:46:21.427Z,102184.09
2017-12-03T23:48:53.552Z,102189.52
2017-12-03T23:51:26.040Z,102191.76
2017-12-03T23:53:59.294Z,102191.64
2017-12-03T23:56:31.660Z,102189.89
2017-12-03T23:59:04.849Z,102191.73
